createdAt,value
2022-08-03T00:01:48.445Z,101528.59
2022-08-03T00:06:50.028Z,101512.00
2022-08-03T00:11:51.568Z,101525.97
2022-08-03T00:16:53.262Z,101520.78
2022-08-03T00:21:54.809Z,101519.00
2022-08-03T00:26:56.385Z,101517.28
2022-08-03T00:31:59.446Z,101502.50
2022-08-03T00:37:02.086Z,101508.47
2022-08-03T00:42:04.983Z,101515.44
2022-08-03T00:47:07.278Z,101520.47
2022-08-03T00:52:12.443Z,101520.31
2022-08-03T00:57:14.118Z,101523.88
2022-08-03T01:02:15.841Z,101523.50
2022-08-03T01:07:40.710Z,101522.66
2022-08-03T01:12:50.336Z,101516.50
2022-08-03T01:17:57.643Z,101504.34
2022-08-03T01:23:30.386Z,101497.34
2022-08-03T01:28:50.521Z,101525.03
2022-08-03T01:33:58.334Z,101513.69
2022-08-03T01:39:03.262Z,101516.31
2022-08-03T01:44:29.139Z,101498.06
2022-08-03T01:49:34.636Z,101495.34
2022-08-03T01:54:43.218Z,101500.56
2022-08-03T01:59:48.642Z,101490.25
2022-08-03T02:04:52.525Z,101490.09
2022-08-03T02:09:55.708Z,101500.44
2022-08-03T02:15:00.042Z,101496.94
2022-08-03T02:20:03.413Z,101485.78
2022-08-03T02:25:05.366Z,101493.38
2022-08-03T02:30:10.918Z,101493.56
2022-08-03T02:35:16.987Z,101515.16
2022-08-03T02:40:21.102Z,101521.31
2022-08-03T02:45:26.321Z,101528.47
2022-08-03T02:50:30.755Z,101521.66
2022-08-03T02:55:35.474Z,101521.75
2022-08-03T03:00:39.290Z,101507.06
2022-08-03T03:05:53.534Z,101508.00
2022-08-03T03:11:07.594Z,101500.13
2022-08-03T03:16:11.898Z,101489.63
2022-08-03T03:21:16.419Z,101486.06
2022-08-03T03:26:20.139Z,101482.44
2022-08-03T03:31:22.434Z,101491.84
2022-08-03T03:36:24.131Z,101491.91
2022-08-03T03:41:25.804Z,101493.53
2022-08-03T03:46:29.462Z,101496.78
2022-08-03T03:51:31.094Z,101519.44
2022-08-03T03:56:33.214Z,101574.94
2022-08-03T04:01:34.811Z,101569.13
2022-08-03T04:06:55.052Z,101568.31
2022-08-03T04:12:01.045Z,101583.72
2022-08-03T04:17:07.282Z,101568.00
2022-08-03T04:22:14.578Z,101556.81
2022-08-03T04:27:23.411Z,101575.13
2022-08-03T04:32:28.679Z,101561.94
2022-08-03T04:37:40.046Z,101560.09
2022-08-03T04:42:43.385Z,101562.09
2022-08-03T04:47:45.397Z,101561.25
2022-08-03T04:52:47.021Z,101569.94
2022-08-03T04:57:48.602Z,101567.50
2022-08-03T05:02:50.336Z,101576.38
2022-08-03T05:07:56.361Z,101580.88
2022-08-03T05:12:58.005Z,101573.97
2022-08-03T05:17:59.856Z,101571.41
2022-08-03T05:23:03.911Z,101571.47
2022-08-03T05:28:05.576Z,101569.75
2022-08-03T05:33:07.959Z,101564.53
2022-08-03T05:38:09.657Z,101567.16
2022-08-03T05:43:12.179Z,101561.88
2022-08-03T05:48:13.759Z,101571.47
2022-08-03T05:53:15.718Z,101555.75
2022-08-03T05:58:17.356Z,101559.22
2022-08-03T06:03:20.208Z,101553.88
2022-08-03T06:08:28.009Z,101518.91
2022-08-03T06:13:29.775Z,101513.44
2022-08-03T06:18:31.495Z,101505.41
2022-08-03T06:23:52.933Z,101507.13
2022-08-03T06:28:55.288Z,101513.78
2022-08-03T06:34:33.596Z,101498.81
2022-08-03T06:39:18.656Z,101492.47
2022-08-03T06:44:20.372Z,101491.41
2022-08-03T06:49:22.176Z,101489.19
2022-08-03T06:54:24.481Z,101480.13
2022-08-03T07:00:09.789Z,101477.31
2022-08-03T07:04:48.457Z,101474.84
2022-08-03T07:09:55.718Z,101464.22
2022-08-03T07:15:02.634Z,101464.00
2022-08-03T07:20:07.368Z,101455.81
2022-08-03T07:25:09.511Z,101457.84
2022-08-03T07:30:11.436Z,101453.38
2022-08-03T07:35:25.239Z,101460.56
2022-08-03T07:40:30.692Z,101454.22
2022-08-03T07:45:34.206Z,101447.44
2022-08-03T07:50:35.929Z,101448.06
2022-08-03T07:55:37.741Z,101449.81
2022-08-03T08:00:39.686Z,101451.16
2022-08-03T08:05:41.309Z,101446.09
2022-08-03T08:10:42.885Z,101451.19
2022-08-03T08:16:00.592Z,101451.22
2022-08-03T08:21:03.465Z,101457.66
2022-08-03T08:26:05.812Z,101459.94
2022-08-03T08:31:07.852Z,101450.91
2022-08-03T08:36:13.383Z,101465.19
2022-08-03T08:41:17.307Z,101458.63
2022-08-03T08:46:23.933Z,101455.53
2022-08-03T08:51:59.476Z,101457.56
2022-08-03T08:56:59.416Z,101471.16
2022-08-03T09:02:01.254Z,101457.94
2022-08-03T09:07:19.556Z,101461.84
2022-08-03T09:12:42.183Z,101451.84
2022-08-03T09:17:48.843Z,101461.03
2022-08-03T09:22:56.569Z,101455.69
2022-08-03T09:28:13.109Z,101453.06
2022-08-03T09:33:47.170Z,101454.81
2022-08-03T09:39:06.380Z,101457.84
2022-08-03T09:44:08.416Z,101458.16
2022-08-03T09:49:30.422Z,101454.53
2022-08-03T09:54:32.773Z,101460.72
2022-08-03T09:59:35.069Z,101461.97
2022-08-03T10:04:48.018Z,101448.97
2022-08-03T10:10:30.109Z,101454.03
2022-08-03T10:16:23.664Z,101450.00
2022-08-03T10:20:51.789Z,101452.66
2022-08-03T10:26:01.959Z,101445.38
2022-08-03T10:31:07.760Z,101436.81
2022-08-03T10:36:10.935Z,101441.69
2022-08-03T10:41:15.920Z,101427.44
2022-08-03T10:46:21.256Z,101426.50
2022-08-03T10:51:23.896Z,101428.38
2022-08-03T10:56:53.546Z,101421.59
2022-08-03T11:02:00.230Z,101415.31
2022-08-03T11:07:23.723Z,101413.41
2022-08-03T11:12:30.768Z,101411.53
2022-08-03T11:17:55.710Z,101407.28
2022-08-03T11:22:59.593Z,101407.16
2022-08-03T11:28:27.752Z,101406.09
2022-08-03T11:33:30.569Z,101398.88
2022-08-03T11:38:32.240Z,101399.59
2022-08-03T11:43:37.782Z,101390.06
2022-08-03T11:48:43.229Z,101394.00
2022-08-03T11:53:47.953Z,101392.66
2022-08-03T11:59:00.984Z,101390.53
2022-08-03T12:04:17.080Z,101398.31
2022-08-03T12:09:21.349Z,101393.56
2022-08-03T12:14:48.940Z,101388.50
2022-08-03T12:19:45.257Z,101389.31
2022-08-03T12:24:47.831Z,101392.13
2022-08-03T12:29:58.432Z,101389.81
2022-08-03T12:35:01.947Z,101386.44
2022-08-03T12:40:10.543Z,101380.13
2022-08-03T12:45:31.894Z,101391.19
2022-08-03T12:50:36.764Z,101380.41
2022-08-03T12:55:57.154Z,101388.81
2022-08-03T13:01:01.662Z,101385.38
2022-08-03T13:06:18.819Z,101393.41
2022-08-03T13:11:57.270Z,101387.25
2022-08-03T13:16:50.600Z,101390.34
2022-08-03T13:21:53.424Z,101383.97
2022-08-03T13:28:01.304Z,101374.94
2022-08-03T13:32:29.115Z,101386.25
2022-08-03T13:37:32.501Z,101382.63
2022-08-03T13:42:36.309Z,101371.59
2022-08-03T13:47:38.032Z,101370.84
2022-08-03T13:52:39.691Z,101367.06
2022-08-03T13:58:06.691Z,101373.69
2022-08-03T14:03:12.278Z,101373.53
2022-08-03T14:08:15.114Z,101375.88
2022-08-03T14:13:18.031Z,101362.47
2022-08-03T14:18:29.307Z,101375.22
2022-08-03T14:23:37.858Z,101373.31
2022-08-03T14:28:39.609Z,101360.34
2022-08-03T14:33:41.346Z,101368.06
2022-08-03T14:38:42.915Z,101364.19
2022-08-03T14:44:00.415Z,101363.00
2022-08-03T14:50:38.230Z,101348.50
2022-08-03T14:54:26.873Z,101356.94
2022-08-03T14:59:28.481Z,101349.44
2022-08-03T15:04:50.125Z,101337.06
2022-08-03T15:09:51.734Z,101343.22
2022-08-03T15:14:53.303Z,101331.91
2022-08-03T15:20:02.165Z,101336.53
2022-08-03T15:26:30.292Z,101335.06
2022-08-03T15:30:40.105Z,101327.94
2022-08-03T15:35:41.724Z,101332.88
2022-08-03T15:40:43.447Z,101327.47
2022-08-03T15:45:45.136Z,101325.00
2022-08-03T15:50:54.576Z,101328.69
2022-08-03T15:55:56.258Z,101319.94
2022-08-03T16:01:02.347Z,101322.00
2022-08-03T16:06:07.066Z,101329.22
2022-08-03T16:11:10.456Z,101327.44
2022-08-03T16:16:13.110Z,101319.09
2022-08-03T16:21:15.613Z,101321.59
2022-08-03T16:26:22.223Z,101312.22
2022-08-03T16:31:32.284Z,101318.69
2022-08-03T16:36:35.136Z,101316.66
2022-08-03T16:41:54.302Z,101311.97
2022-08-03T16:47:02.505Z,101308.69
2022-08-03T16:52:07.348Z,101308.13
2022-08-03T16:57:08.960Z,101303.13
2022-08-03T17:02:20.750Z,101305.31
2022-08-03T17:07:30.322Z,101307.19
2022-08-03T17:12:32.009Z,101299.06
2022-08-03T17:17:37.558Z,101300.91
2022-08-03T17:23:00.792Z,101296.34
2022-08-03T17:28:49.512Z,101296.91
2022-08-03T17:33:35.459Z,101304.53
2022-08-03T17:38:39.930Z,101298.06
2022-08-03T17:44:14.955Z,101300.34
2022-08-03T17:49:24.982Z,101303.78
2022-08-03T17:55:55.586Z,101299.75
2022-08-03T18:00:28.625Z,101300.72
2022-08-03T18:06:10.615Z,101304.94
2022-08-03T18:11:21.700Z,101306.91
2022-08-03T18:16:45.677Z,101309.44
2022-08-03T18:22:03.590Z,101300.41
2022-08-03T18:27:10.921Z,101309.00
2022-08-03T18:32:16.813Z,101300.59
2022-08-03T18:37:25.189Z,101298.09
2022-08-03T18:42:28.600Z,101303.88
2022-08-03T18:47:52.188Z,101307.84
2022-08-03T18:53:03.603Z,101304.22
2022-08-03T18:58:09.726Z,101312.84
2022-08-03T19:03:24.559Z,101324.25
2022-08-03T19:08:42.815Z,101317.84
2022-08-03T19:13:50.188Z,101315.72
2022-08-03T19:18:54.108Z,101321.91
2022-08-03T19:23:59.777Z,101307.44
2022-08-03T19:29:02.471Z,101311.06
2022-08-03T19:34:04.873Z,101318.09
2022-08-03T19:39:09.184Z,101328.91
2022-08-03T19:44:20.152Z,101321.22
2022-08-03T19:50:04.659Z,101328.19
2022-08-03T19:54:54.038Z,101324.38
2022-08-03T19:59:57.537Z,101322.97
2022-08-03T20:05:00.518Z,101331.06
2022-08-03T20:10:05.387Z,101338.03
2022-08-03T20:15:07.882Z,101336.28
2022-08-03T20:20:10.495Z,101333.09
2022-08-03T20:25:16.227Z,101332.75
2022-08-03T20:30:27.358Z,101322.13
2022-08-03T20:35:29.143Z,101332.34
2022-08-03T20:40:40.413Z,101333.16
2022-08-03T20:46:00.915Z,101345.72
2022-08-03T20:51:19.295Z,101336.78
2022-08-03T21:01:27.683Z,101354.19
2022-08-03T21:12:15.430Z,101353.94
2022-08-03T21:13:12.685Z,101359.81
2022-08-03T21:17:39.281Z,101355.38
2022-08-03T21:22:49.642Z,101353.84
2022-08-03T21:27:52.106Z,101353.09
2022-08-03T21:33:08.091Z,101348.84
2022-08-03T21:38:30.243Z,101345.19
2022-08-03T21:43:34.531Z,101336.53
2022-08-03T21:48:38.623Z,101342.84
2022-08-03T21:54:04.516Z,101350.00
2022-08-03T21:59:08.766Z,101349.09
2022-08-03T22:04:50.266Z,101334.31
2022-08-03T22:09:37.004Z,101337.00
2022-08-03T22:14:39.103Z,101333.66
2022-08-03T22:19:40.742Z,101324.97
2022-08-03T22:24:52.624Z,101324.78
2022-08-03T22:30:02.958Z,101332.75
2022-08-03T22:35:07.602Z,101325.97
2022-08-03T22:40:12.530Z,101326.88
2022-08-03T22:46:06.474Z,101336.59
2022-08-03T22:50:39.124Z,101337.53
2022-08-03T22:55:40.982Z,101332.34
2022-08-03T23:00:53.923Z,101332.38
2022-08-03T23:06:02.104Z,101341.19
2022-08-03T23:11:08.470Z,101342.13
2022-08-03T23:16:10.430Z,101327.22
2022-08-03T23:21:12.540Z,101332.47
2022-08-03T23:26:17.998Z,101327.28
2022-08-03T23:31:25.209Z,101331.63
2022-08-03T23:36:30.431Z,101322.00
2022-08-03T23:41:34.483Z,101322.97
2022-08-03T23:46:37.507Z,101313.34
2022-08-03T23:51:45.326Z,101308.97
2022-08-03T23:57:05.528Z,101315.22
